Terminal Aerodrome Forecast
Issued by NWS

Home | Current Version | Previous Version | Text Only | Print | Product List | Glossary On
Versions: 1 2 3 4 5 6 7 8 9 10 11 12 13 14 15 16 17 18 19 20 21
000
FTUS43 KIND 251800 AAA
TAFLAF
TAF AMD
KLAF 251817Z 2518/2618 05012KT 2SM -SN OVC006
     FM252200 04016G26KT 2SM -SN OVC007
     FM260300 03014G21KT P6SM OVC010
     FM260900 01009KT P6SM OVC040=

USA.gov is the U.S. government's official web portal to all federal, state and local government web resources and services.